sensor_id;sensor_type;location;lat;lon;timestamp;P1;durP1;ratioP1;P2;durP2;ratioP2
17991;SDS011;9121;50.926;5.340;2024-01-25T00:01:48;74.20;;;9.57;;
17991;SDS011;9121;50.926;5.340;2024-01-25T00:04:15;62.90;;;10.37;;
17991;SDS011;9121;50.926;5.340;2024-01-25T00:06:43;61.37;;;9.57;;
17991;SDS011;9121;50.926;5.340;2024-01-25T00:09:10;68.63;;;9.60;;
17991;SDS011;9121;50.926;5.340;2024-01-25T00:11:37;64.33;;;10.17;;
17991;SDS011;9121;50.926;5.340;2024-01-25T00:14:04;75.50;;;9.53;;
17991;SDS011;9121;50.926;5.340;2024-01-25T00:16:31;55.50;;;8.83;;
17991;SDS011;9121;50.926;5.340;2024-01-25T00:18:58;63.77;;;9.17;;
17991;SDS011;9121;50.926;5.340;2024-01-25T00:21:25;54.67;;;9.50;;
17991;SDS011;9121;50.926;5.340;2024-01-25T00:23:53;66.30;;;9.70;;
17991;SDS011;9121;50.926;5.340;2024-01-25T00:26:20;66.47;;;9.47;;
17991;SDS011;9121;50.926;5.340;2024-01-25T00:28:47;57.90;;;8.70;;
17991;SDS011;9121;50.926;5.340;2024-01-25T00:31:14;56.20;;;7.60;;
17991;SDS011;9121;50.926;5.340;2024-01-25T00:33:41;60.83;;;9.40;;
17991;SDS011;9121;50.926;5.340;2024-01-25T00:36:09;64.63;;;9.17;;
17991;SDS011;9121;50.926;5.340;2024-01-25T00:38:37;63.00;;;9.80;;
17991;SDS011;9121;50.926;5.340;2024-01-25T00:41:06;65.57;;;9.57;;
17991;SDS011;9121;50.926;5.340;2024-01-25T00:43:35;72.87;;;9.20;;
17991;SDS011;9121;50.926;5.340;2024-01-25T00:46:03;58.93;;;8.93;;
17991;SDS011;9121;50.926;5.340;2024-01-25T00:48:30;64.27;;;10.47;;
17991;SDS011;9121;50.926;5.340;2024-01-25T00:50:58;62.87;;;10.13;;
17991;SDS011;9121;50.926;5.340;2024-01-25T00:53:25;60.53;;;8.70;;
17991;SDS011;9121;50.926;5.340;2024-01-25T00:55:53;61.73;;;9.07;;
17991;SDS011;9121;50.926;5.340;2024-01-25T00:58:22;60.73;;;8.73;;
17991;SDS011;9121;50.926;5.340;2024-01-25T01:00:49;64.00;;;8.80;;
17991;SDS011;9121;50.926;5.340;2024-01-25T01:03:17;69.33;;;9.50;;
17991;SDS011;9121;50.926;5.340;2024-01-25T01:05:45;69.47;;;9.00;;
17991;SDS011;9121;50.926;5.340;2024-01-25T01:08:13;66.53;;;8.50;;
17991;SDS011;9121;50.926;5.340;2024-01-25T01:10:40;67.97;;;9.53;;
17991;SDS011;9121;50.926;5.340;2024-01-25T01:13:07;54.60;;;8.27;;
17991;SDS011;9121;50.926;5.340;2024-01-25T01:15:35;56.23;;;8.70;;
17991;SDS011;9121;50.926;5.340;2024-01-25T01:18:02;61.33;;;9.17;;
17991;SDS011;9121;50.926;5.340;2024-01-25T01:20:30;52.77;;;9.07;;
17991;SDS011;9121;50.926;5.340;2024-01-25T01:22:57;72.47;;;9.87;;
17991;SDS011;9121;50.926;5.340;2024-01-25T01:25:24;61.90;;;8.73;;
17991;SDS011;9121;50.926;5.340;2024-01-25T01:27:51;55.87;;;9.37;;
17991;SDS011;9121;50.926;5.340;2024-01-25T01:30:18;60.67;;;10.10;;
17991;SDS011;9121;50.926;5.340;2024-01-25T01:32:47;68.70;;;9.80;;
17991;SDS011;9121;50.926;5.340;2024-01-25T01:35:14;77.33;;;9.47;;
17991;SDS011;9121;50.926;5.340;2024-01-25T01:37:41;64.93;;;9.47;;
17991;SDS011;9121;50.926;5.340;2024-01-25T01:40:08;52.87;;;9.47;;
17991;SDS011;9121;50.926;5.340;2024-01-25T01:42:36;68.37;;;9.67;;
17991;SDS011;9121;50.926;5.340;2024-01-25T01:45:03;62.30;;;9.93;;
17991;SDS011;9121;50.926;5.340;2024-01-25T01:47:30;73.37;;;10.10;;
17991;SDS011;9121;50.926;5.340;2024-01-25T01:49:59;62.73;;;10.30;;
17991;SDS011;9121;50.926;5.340;2024-01-25T01:52:26;66.30;;;8.30;;
17991;SDS011;9121;50.926;5.340;2024-01-25T01:54:53;46.13;;;8.27;;
17991;SDS011;9121;50.926;5.340;2024-01-25T01:57:21;63.97;;;8.47;;
17991;SDS011;9121;50.926;5.340;2024-01-25T01:59:48;61.20;;;8.77;;
17991;SDS011;9121;50.926;5.340;2024-01-25T02:02:15;68.30;;;9.13;;
17991;SDS011;9121;50.926;5.340;2024-01-25T02:04:42;68.97;;;8.67;;
17991;SDS011;9121;50.926;5.340;2024-01-25T02:07:11;67.33;;;8.73;;
17991;SDS011;9121;50.926;5.340;2024-01-25T02:09:39;67.70;;;8.33;;
17991;SDS011;9121;50.926;5.340;2024-01-25T02:12:06;61.67;;;9.07;;
17991;SDS011;9121;50.926;5.340;2024-01-25T02:14:33;78.57;;;11.00;;
17991;SDS011;9121;50.926;5.340;2024-01-25T02:17:00;56.53;;;7.37;;
17991;SDS011;9121;50.926;5.340;2024-01-25T02:19:27;57.43;;;9.30;;
17991;SDS011;9121;50.926;5.340;2024-01-25T02:21:54;57.50;;;9.03;;
17991;SDS011;9121;50.926;5.340;2024-01-25T02:24:25;64.07;;;8.10;;
17991;SDS011;9121;50.926;5.340;2024-01-25T02:26:52;61.63;;;8.00;;
17991;SDS011;9121;50.926;5.340;2024-01-25T02:29:19;80.30;;;9.73;;
17991;SDS011;9121;50.926;5.340;2024-01-25T02:31:46;65.30;;;8.27;;
17991;SDS011;9121;50.926;5.340;2024-01-25T02:34:13;74.07;;;9.87;;
17991;SDS011;9121;50.926;5.340;2024-01-25T02:36:39;65.97;;;8.70;;
17991;SDS011;9121;50.926;5.340;2024-01-25T02:39:06;65.07;;;9.27;;
17991;SDS011;9121;50.926;5.340;2024-01-25T02:41:35;60.80;;;7.53;;
17991;SDS011;9121;50.926;5.340;2024-01-25T02:44:02;71.07;;;9.13;;
17991;SDS011;9121;50.926;5.340;2024-01-25T02:46:29;78.10;;;9.43;;
17991;SDS011;9121;50.926;5.340;2024-01-25T02:48:56;59.37;;;9.73;;
17991;SDS011;9121;50.926;5.340;2024-01-25T02:51:23;59.30;;;9.43;;
17991;SDS011;9121;50.926;5.340;2024-01-25T02:53:50;63.73;;;9.23;;
17991;SDS011;9121;50.926;5.340;2024-01-25T02:56:17;70.47;;;9.97;;
17991;SDS011;9121;50.926;5.340;2024-01-25T02:58:45;69.27;;;8.77;;
17991;SDS011;9121;50.926;5.340;2024-01-25T03:01:12;63.10;;;8.90;;
17991;SDS011;9121;50.926;5.340;2024-01-25T03:03:39;65.73;;;9.10;;
17991;SDS011;9121;50.926;5.340;2024-01-25T03:06:06;59.17;;;8.93;;
17991;SDS011;9121;50.926;5.340;2024-01-25T03:08:34;54.83;;;8.17;;
17991;SDS011;9121;50.926;5.340;2024-01-25T03:11:01;64.33;;;9.33;;
17991;SDS011;9121;50.926;5.340;2024-01-25T03:13:29;60.83;;;8.40;;
17991;SDS011;9121;50.926;5.340;2024-01-25T03:15:58;58.87;;;8.93;;
17991;SDS011;9121;50.926;5.340;2024-01-25T03:18:25;52.97;;;8.93;;
17991;SDS011;9121;50.926;5.340;2024-01-25T03:20:52;65.77;;;8.03;;
17991;SDS011;9121;50.926;5.340;2024-01-25T03:23:19;52.30;;;8.97;;
17991;SDS011;9121;50.926;5.340;2024-01-25T03:25:46;56.57;;;7.77;;
17991;SDS011;9121;50.926;5.340;2024-01-25T03:28:12;65.57;;;8.77;;
17991;SDS011;9121;50.926;5.340;2024-01-25T03:30:41;62.33;;;9.47;;
17991;SDS011;9121;50.926;5.340;2024-01-25T03:33:10;53.13;;;8.97;;
17991;SDS011;9121;50.926;5.340;2024-01-25T03:35:37;53.70;;;7.20;;
17991;SDS011;9121;50.926;5.340;2024-01-25T03:38:04;53.23;;;9.23;;
17991;SDS011;9121;50.926;5.340;2024-01-25T03:40:30;45.20;;;8.03;;
17991;SDS011;9121;50.926;5.340;2024-01-25T03:42:58;66.43;;;7.97;;
17991;SDS011;9121;50.926;5.340;2024-01-25T03:45:25;62.43;;;9.47;;
17991;SDS011;9121;50.926;5.340;2024-01-25T03:47:52;61.37;;;8.57;;
17991;SDS011;9121;50.926;5.340;2024-01-25T03:50:20;63.23;;;9.00;;
17991;SDS011;9121;50.926;5.340;2024-01-25T03:52:47;64.87;;;9.17;;
17991;SDS011;9121;50.926;5.340;2024-01-25T03:55:14;74.30;;;8.40;;
17991;SDS011;9121;50.926;5.340;2024-01-25T03:57:41;54.00;;;7.43;;
17991;SDS011;9121;50.926;5.340;2024-01-25T04:00:08;58.07;;;8.37;;
17991;SDS011;9121;50.926;5.340;2024-01-25T04:02:36;53.23;;;7.53;;
17991;SDS011;9121;50.926;5.340;2024-01-25T04:05:03;58.43;;;8.27;;
17991;SDS011;9121;50.926;5.340;2024-01-25T04:07:32;63.80;;;9.50;;
17991;SDS011;9121;50.926;5.340;2024-01-25T04:09:59;55.80;;;8.43;;
17991;SDS011;9121;50.926;5.340;2024-01-25T04:12:26;50.80;;;8.70;;
17991;SDS011;9121;50.926;5.340;2024-01-25T04:14:53;58.87;;;8.90;;
17991;SDS011;9121;50.926;5.340;2024-01-25T04:17:20;70.03;;;10.13;;
17991;SDS011;9121;50.926;5.340;2024-01-25T04:19:47;69.17;;;9.30;;
17991;SDS011;9121;50.926;5.340;2024-01-25T04:22:14;55.27;;;8.37;;
17991;SDS011;9121;50.926;5.340;2024-01-25T04:24:42;57.87;;;9.47;;
17991;SDS011;9121;50.926;5.340;2024-01-25T04:27:09;69.67;;;10.40;;
17991;SDS011;9121;50.926;5.340;2024-01-25T04:29:37;68.83;;;9.13;;
17991;SDS011;9121;50.926;5.340;2024-01-25T04:32:05;60.63;;;9.03;;
17991;SDS011;9121;50.926;5.340;2024-01-25T04:34:32;60.10;;;9.70;;
17991;SDS011;9121;50.926;5.340;2024-01-25T04:36:59;76.47;;;9.97;;
17991;SDS011;9121;50.926;5.340;2024-01-25T04:39:26;74.07;;;8.87;;
17991;SDS011;9121;50.926;5.340;2024-01-25T04:41:54;59.00;;;10.10;;
17991;SDS011;9121;50.926;5.340;2024-01-25T04:44:21;67.73;;;9.20;;
17991;SDS011;9121;50.926;5.340;2024-01-25T04:46:48;75.03;;;10.73;;
17991;SDS011;9121;50.926;5.340;2024-01-25T04:49:17;71.27;;;9.57;;
17991;SDS011;9121;50.926;5.340;2024-01-25T04:51:44;77.23;;;10.43;;
17991;SDS011;9121;50.926;5.340;2024-01-25T04:54:12;74.83;;;8.97;;
17991;SDS011;9121;50.926;5.340;2024-01-25T04:56:40;64.97;;;9.73;;
17991;SDS011;9121;50.926;5.340;2024-01-25T04:59:08;57.37;;;8.70;;
17991;SDS011;9121;50.926;5.340;2024-01-25T05:01:35;74.70;;;9.77;;
17991;SDS011;9121;50.926;5.340;2024-01-25T05:04:02;73.83;;;8.23;;
17991;SDS011;9121;50.926;5.340;2024-01-25T05:06:29;74.20;;;9.23;;
17991;SDS011;9121;50.926;5.340;2024-01-25T05:08:56;71.77;;;9.20;;
17991;SDS011;9121;50.926;5.340;2024-01-25T05:11:23;56.80;;;8.30;;
17991;SDS011;9121;50.926;5.340;2024-01-25T05:13:50;59.30;;;9.43;;
17991;SDS011;9121;50.926;5.340;2024-01-25T05:16:18;57.40;;;8.47;;
17991;SDS011;9121;50.926;5.340;2024-01-25T05:18:45;54.27;;;8.87;;
17991;SDS011;9121;50.926;5.340;2024-01-25T05:21:12;61.83;;;8.37;;
17991;SDS011;9121;50.926;5.340;2024-01-25T05:23:39;63.90;;;9.83;;
17991;SDS011;9121;50.926;5.340;2024-01-25T05:26:06;69.80;;;9.47;;
17991;SDS011;9121;50.926;5.340;2024-01-25T05:28:33;64.30;;;9.93;;
17991;SDS011;9121;50.926;5.340;2024-01-25T05:31:00;74.40;;;9.00;;
17991;SDS011;9121;50.926;5.340;2024-01-25T05:33:29;63.90;;;9.43;;
17991;SDS011;9121;50.926;5.340;2024-01-25T05:35:57;57.97;;;7.47;;
17991;SDS011;9121;50.926;5.340;2024-01-25T05:38:24;53.90;;;8.70;;
17991;SDS011;9121;50.926;5.340;2024-01-25T05:40:51;71.03;;;8.33;;
17991;SDS011;9121;50.926;5.340;2024-01-25T05:43:19;78.53;;;9.00;;
17991;SDS011;9121;50.926;5.340;2024-01-25T05:45:46;58.90;;;8.67;;
17991;SDS011;9121;50.926;5.340;2024-01-25T05:48:14;62.47;;;9.20;;
17991;SDS011;9121;50.926;5.340;2024-01-25T05:50:43;69.10;;;8.97;;
17991;SDS011;9121;50.926;5.340;2024-01-25T05:53:10;70.83;;;8.83;;
17991;SDS011;9121;50.926;5.340;2024-01-25T05:55:38;61.53;;;9.23;;
17991;SDS011;9121;50.926;5.340;2024-01-25T05:58:05;82.10;;;10.40;;
17991;SDS011;9121;50.926;5.340;2024-01-25T06:00:33;66.27;;;9.43;;
17991;SDS011;9121;50.926;5.340;2024-01-25T06:03:00;68.37;;;8.30;;
17991;SDS011;9121;50.926;5.340;2024-01-25T06:05:28;78.50;;;11.57;;
17991;SDS011;9121;50.926;5.340;2024-01-25T06:07:56;55.23;;;9.40;;
17991;SDS011;9121;50.926;5.340;2024-01-25T06:10:24;52.30;;;7.87;;
17991;SDS011;9121;50.926;5.340;2024-01-25T06:12:51;54.67;;;8.07;;
17991;SDS011;9121;50.926;5.340;2024-01-25T06:15:18;77.47;;;10.57;;
17991;SDS011;9121;50.926;5.340;2024-01-25T06:17:45;72.57;;;11.10;;
17991;SDS011;9121;50.926;5.340;2024-01-25T06:20:12;61.97;;;8.90;;
17991;SDS011;9121;50.926;5.340;2024-01-25T06:22:39;77.97;;;11.40;;
17991;SDS011;9121;50.926;5.340;2024-01-25T06:25:08;63.97;;;9.03;;
17991;SDS011;9121;50.926;5.340;2024-01-25T06:27:36;52.17;;;8.17;;
17991;SDS011;9121;50.926;5.340;2024-01-25T06:30:03;60.30;;;9.93;;
17991;SDS011;9121;50.926;5.340;2024-01-25T06:32:31;71.67;;;9.73;;
17991;SDS011;9121;50.926;5.340;2024-01-25T06:34:58;57.10;;;9.70;;
17991;SDS011;9121;50.926;5.340;2024-01-25T06:37:25;69.97;;;9.70;;
17991;SDS011;9121;50.926;5.340;2024-01-25T06:39:52;64.43;;;9.93;;
17991;SDS011;9121;50.926;5.340;2024-01-25T06:42:21;62.73;;;8.93;;
17991;SDS011;9121;50.926;5.340;2024-01-25T06:44:49;58.40;;;9.20;;
17991;SDS011;9121;50.926;5.340;2024-01-25T06:47:16;73.63;;;10.27;;
17991;SDS011;9121;50.926;5.340;2024-01-25T06:49:43;71.23;;;10.17;;
17991;SDS011;9121;50.926;5.340;2024-01-25T06:52:13;62.40;;;9.97;;
17991;SDS011;9121;50.926;5.340;2024-01-25T06:54:40;77.43;;;10.10;;
17991;SDS011;9121;50.926;5.340;2024-01-25T06:57:06;98.53;;;10.03;;
17991;SDS011;9121;50.926;5.340;2024-01-25T06:59:35;66.43;;;8.83;;
17991;SDS011;9121;50.926;5.340;2024-01-25T07:02:02;48.23;;;7.83;;
17991;SDS011;9121;50.926;5.340;2024-01-25T07:04:29;65.93;;;10.30;;
17991;SDS011;9121;50.926;5.340;2024-01-25T07:06:56;65.03;;;9.10;;
17991;SDS011;9121;50.926;5.340;2024-01-25T07:09:23;64.30;;;9.80;;
17991;SDS011;9121;50.926;5.340;2024-01-25T07:11:50;75.63;;;9.70;;
17991;SDS011;9121;50.926;5.340;2024-01-25T07:14:17;67.40;;;9.17;;
17991;SDS011;9121;50.926;5.340;2024-01-25T07:16:46;59.43;;;11.43;;
17991;SDS011;9121;50.926;5.340;2024-01-25T07:19:13;59.47;;;10.37;;
17991;SDS011;9121;50.926;5.340;2024-01-25T07:21:40;69.90;;;9.40;;
17991;SDS011;9121;50.926;5.340;2024-01-25T07:24:10;76.70;;;9.67;;
17991;SDS011;9121;50.926;5.340;2024-01-25T07:26:37;59.53;;;8.67;;
17991;SDS011;9121;50.926;5.340;2024-01-25T07:29:04;63.43;;;9.30;;
17991;SDS011;9121;50.926;5.340;2024-01-25T07:31:31;71.90;;;10.37;;
17991;SDS011;9121;50.926;5.340;2024-01-25T07:34:00;49.83;;;8.83;;
17991;SDS011;9121;50.926;5.340;2024-01-25T07:36:27;80.90;;;14.63;;
17991;SDS011;9121;50.926;5.340;2024-01-25T07:38:54;69.13;;;9.13;;
17991;SDS011;9121;50.926;5.340;2024-01-25T07:41:21;60.40;;;8.70;;
17991;SDS011;9121;50.926;5.340;2024-01-25T07:43:48;64.73;;;9.67;;
17991;SDS011;9121;50.926;5.340;2024-01-25T07:46:20;72.00;;;10.73;;
17991;SDS011;9121;50.926;5.340;2024-01-25T07:48:47;65.87;;;10.17;;
17991;SDS011;9121;50.926;5.340;2024-01-25T07:51:15;67.33;;;10.60;;
17991;SDS011;9121;50.926;5.340;2024-01-25T07:53:42;59.10;;;9.67;;
17991;SDS011;9121;50.926;5.340;2024-01-25T07:56:09;61.80;;;10.23;;
17991;SDS011;9121;50.926;5.340;2024-01-25T07:58:36;66.93;;;12.20;;
17991;SDS011;9121;50.926;5.340;2024-01-25T08:01:03;64.77;;;10.80;;
17991;SDS011;9121;50.926;5.340;2024-01-25T08:03:31;62.77;;;9.40;;
17991;SDS011;9121;50.926;5.340;2024-01-25T08:05:58;67.57;;;11.07;;
17991;SDS011;9121;50.926;5.340;2024-01-25T08:08:27;56.00;;;9.17;;
17991;SDS011;9121;50.926;5.340;2024-01-25T08:10:54;63.87;;;11.23;;
17991;SDS011;9121;50.926;5.340;2024-01-25T08:13:21;70.60;;;12.43;;
17991;SDS011;9121;50.926;5.340;2024-01-25T08:15:48;82.97;;;12.53;;
17991;SDS011;9121;50.926;5.340;2024-01-25T08:18:15;57.33;;;12.93;;
17991;SDS011;9121;50.926;5.340;2024-01-25T08:20:44;74.23;;;12.93;;
17991;SDS011;9121;50.926;5.340;2024-01-25T08:23:12;67.50;;;12.70;;
17991;SDS011;9121;50.926;5.340;2024-01-25T08:25:40;57.03;;;10.23;;
17991;SDS011;9121;50.926;5.340;2024-01-25T08:28:08;62.03;;;12.00;;
17991;SDS011;9121;50.926;5.340;2024-01-25T08:30:35;67.60;;;9.90;;
17991;SDS011;9121;50.926;5.340;2024-01-25T08:33:02;63.90;;;10.07;;
17991;SDS011;9121;50.926;5.340;2024-01-25T08:35:29;47.97;;;9.53;;
17991;SDS011;9121;50.926;5.340;2024-01-25T08:37:56;64.30;;;10.20;;
17991;SDS011;9121;50.926;5.340;2024-01-25T08:40:23;62.63;;;10.37;;
17991;SDS011;9121;50.926;5.340;2024-01-25T08:42:51;76.53;;;12.80;;
17991;SDS011;9121;50.926;5.340;2024-01-25T08:45:18;56.07;;;11.33;;
17991;SDS011;9121;50.926;5.340;2024-01-25T08:47:45;55.80;;;12.17;;
17991;SDS011;9121;50.926;5.340;2024-01-25T08:50:14;56.73;;;11.50;;
17991;SDS011;9121;50.926;5.340;2024-01-25T08:52:40;55.70;;;12.33;;
17991;SDS011;9121;50.926;5.340;2024-01-25T08:55:08;57.60;;;11.93;;
17991;SDS011;9121;50.926;5.340;2024-01-25T08:57:35;63.13;;;13.17;;
17991;SDS011;9121;50.926;5.340;2024-01-25T09:00:04;60.37;;;12.70;;
17991;SDS011;9121;50.926;5.340;2024-01-25T09:02:35;62.93;;;14.30;;
17991;SDS011;9121;50.926;5.340;2024-01-25T09:05:02;63.43;;;13.67;;
17991;SDS011;9121;50.926;5.340;2024-01-25T09:07:30;63.30;;;14.90;;
17991;SDS011;9121;50.926;5.340;2024-01-25T09:09:57;58.93;;;14.80;;
17991;SDS011;9121;50.926;5.340;2024-01-25T09:12:24;63.30;;;14.73;;
17991;SDS011;9121;50.926;5.340;2024-01-25T09:14:51;51.07;;;13.37;;
17991;SDS011;9121;50.926;5.340;2024-01-25T09:17:19;55.87;;;15.03;;
17991;SDS011;9121;50.926;5.340;2024-01-25T09:19:47;50.27;;;14.63;;
17991;SDS011;9121;50.926;5.340;2024-01-25T09:22:16;57.10;;;16.00;;
17991;SDS011;9121;50.926;5.340;2024-01-25T09:24:44;60.53;;;16.30;;
17991;SDS011;9121;50.926;5.340;2024-01-25T09:27:11;48.90;;;15.07;;
17991;SDS011;9121;50.926;5.340;2024-01-25T09:29:38;47.50;;;16.63;;
17991;SDS011;9121;50.926;5.340;2024-01-25T09:32:05;50.27;;;14.87;;
17991;SDS011;9121;50.926;5.340;2024-01-25T09:34:34;46.80;;;16.20;;
17991;SDS011;9121;50.926;5.340;2024-01-25T09:37:03;57.00;;;16.57;;
17991;SDS011;9121;50.926;5.340;2024-01-25T09:39:30;63.97;;;17.70;;
17991;SDS011;9121;50.926;5.340;2024-01-25T09:41:58;62.63;;;18.33;;
17991;SDS011;9121;50.926;5.340;2024-01-25T09:44:25;54.90;;;19.40;;
17991;SDS011;9121;50.926;5.340;2024-01-25T09:46:52;64.70;;;21.20;;
17991;SDS011;9121;50.926;5.340;2024-01-25T09:49:20;63.90;;;20.80;;
17991;SDS011;9121;50.926;5.340;2024-01-25T09:51:50;67.43;;;18.97;;
17991;SDS011;9121;50.926;5.340;2024-01-25T09:54:18;67.00;;;21.37;;
17991;SDS011;9121;50.926;5.340;2024-01-25T09:56:45;72.70;;;21.27;;
17991;SDS011;9121;50.926;5.340;2024-01-25T09:59:16;67.77;;;21.70;;
17991;SDS011;9121;50.926;5.340;2024-01-25T10:01:43;81.63;;;22.73;;
17991;SDS011;9121;50.926;5.340;2024-01-25T10:04:11;75.43;;;21.87;;
17991;SDS011;9121;50.926;5.340;2024-01-25T10:06:38;76.00;;;23.07;;
17991;SDS011;9121;50.926;5.340;2024-01-25T10:09:08;79.93;;;24.43;;
17991;SDS011;9121;50.926;5.340;2024-01-25T10:11:39;73.30;;;20.97;;
17991;SDS011;9121;50.926;5.340;2024-01-25T10:14:06;71.87;;;21.70;;
17991;SDS011;9121;50.926;5.340;2024-01-25T10:16:33;71.47;;;21.70;;
17991;SDS011;9121;50.926;5.340;2024-01-25T10:19:01;66.90;;;21.00;;
17991;SDS011;9121;50.926;5.340;2024-01-25T10:21:34;64.77;;;21.40;;
17991;SDS011;9121;50.926;5.340;2024-01-25T10:24:02;70.53;;;20.03;;
17991;SDS011;9121;50.926;5.340;2024-01-25T10:26:30;67.83;;;23.27;;
17991;SDS011;9121;50.926;5.340;2024-01-25T10:28:57;66.90;;;20.80;;
17991;SDS011;9121;50.926;5.340;2024-01-25T10:31:26;85.00;;;26.27;;
17991;SDS011;9121;50.926;5.340;2024-01-25T10:33:54;78.63;;;23.90;;
17991;SDS011;9121;50.926;5.340;2024-01-25T10:36:22;78.27;;;22.97;;
17991;SDS011;9121;50.926;5.340;2024-01-25T10:38:50;68.07;;;22.20;;
17991;SDS011;9121;50.926;5.340;2024-01-25T10:41:21;66.77;;;21.30;;
17991;SDS011;9121;50.926;5.340;2024-01-25T10:43:51;66.87;;;21.57;;
17991;SDS011;9121;50.926;5.340;2024-01-25T10:46:18;62.43;;;20.23;;
17991;SDS011;9121;50.926;5.340;2024-01-25T10:48:46;78.60;;;22.77;;
17991;SDS011;9121;50.926;5.340;2024-01-25T10:51:14;72.17;;;21.23;;
17991;SDS011;9121;50.926;5.340;2024-01-25T10:53:43;74.43;;;21.53;;
17991;SDS011;9121;50.926;5.340;2024-01-25T10:56:11;65.63;;;18.87;;
17991;SDS011;9121;50.926;5.340;2024-01-25T10:58:40;62.03;;;19.87;;
17991;SDS011;9121;50.926;5.340;2024-01-25T11:01:09;68.93;;;20.87;;
17991;SDS011;9121;50.926;5.340;2024-01-25T11:03:40;73.43;;;19.33;;
17991;SDS011;9121;50.926;5.340;2024-01-25T11:06:07;71.43;;;19.37;;
17991;SDS011;9121;50.926;5.340;2024-01-25T11:08:35;68.27;;;19.00;;
17991;SDS011;9121;50.926;5.340;2024-01-25T11:11:05;68.33;;;19.10;;
17991;SDS011;9121;50.926;5.340;2024-01-25T11:13:34;67.23;;;18.20;;
17991;SDS011;9121;50.926;5.340;2024-01-25T11:16:13;57.23;;;17.57;;
17991;SDS011;9121;50.926;5.340;2024-01-25T11:18:47;74.37;;;19.20;;
17991;SDS011;9121;50.926;5.340;2024-01-25T11:21:22;69.07;;;18.30;;
17991;SDS011;9121;50.926;5.340;2024-01-25T11:23:58;69.77;;;18.97;;
17991;SDS011;9121;50.926;5.340;2024-01-25T11:26:26;66.10;;;18.20;;
17991;SDS011;9121;50.926;5.340;2024-01-25T11:28:54;68.90;;;19.10;;
17991;SDS011;9121;50.926;5.340;2024-01-25T11:31:23;67.57;;;17.47;;
17991;SDS011;9121;50.926;5.340;2024-01-25T11:33:50;66.93;;;18.40;;
17991;SDS011;9121;50.926;5.340;2024-01-25T11:36:20;64.30;;;18.13;;
17991;SDS011;9121;50.926;5.340;2024-01-25T11:38:48;63.00;;;16.33;;
17991;SDS011;9121;50.926;5.340;2024-01-25T11:41:15;64.33;;;16.57;;
17991;SDS011;9121;50.926;5.340;2024-01-25T11:43:42;57.90;;;16.80;;
17991;SDS011;9121;50.926;5.340;2024-01-25T11:46:09;70.03;;;15.87;;
17991;SDS011;9121;50.926;5.340;2024-01-25T11:48:40;66.30;;;16.40;;
17991;SDS011;9121;50.926;5.340;2024-01-25T11:51:08;70.67;;;16.87;;
17991;SDS011;9121;50.926;5.340;2024-01-25T11:53:36;69.17;;;16.73;;
17991;SDS011;9121;50.926;5.340;2024-01-25T11:56:04;50.00;;;14.13;;
17991;SDS011;9121;50.926;5.340;2024-01-25T12:03:59;62.20;;;14.30;;
17991;SDS011;9121;50.926;5.340;2024-01-25T12:06:26;66.23;;;14.17;;
17991;SDS011;9121;50.926;5.340;2024-01-25T12:08:53;54.50;;;13.63;;
17991;SDS011;9121;50.926;5.340;2024-01-25T12:11:20;59.73;;;14.10;;
17991;SDS011;9121;50.926;5.340;2024-01-25T12:13:48;55.67;;;12.93;;
17991;SDS011;9121;50.926;5.340;2024-01-25T12:16:14;59.17;;;12.07;;
17991;SDS011;9121;50.926;5.340;2024-01-25T12:18:42;58.67;;;11.23;;
17991;SDS011;9121;50.926;5.340;2024-01-25T12:21:13;48.77;;;10.13;;
17991;SDS011;9121;50.926;5.340;2024-01-25T12:23:40;49.10;;;9.93;;
17991;SDS011;9121;50.926;5.340;2024-01-25T12:26:09;53.40;;;11.17;;
17991;SDS011;9121;50.926;5.340;2024-01-25T12:28:37;61.10;;;11.43;;
17991;SDS011;9121;50.926;5.340;2024-01-25T12:31:04;50.33;;;10.00;;
17991;SDS011;9121;50.926;5.340;2024-01-25T12:33:32;58.00;;;11.13;;
17991;SDS011;9121;50.926;5.340;2024-01-25T12:36:00;58.07;;;11.00;;
17991;SDS011;9121;50.926;5.340;2024-01-25T12:38:29;53.70;;;10.70;;
17991;SDS011;9121;50.926;5.340;2024-01-25T12:40:58;57.63;;;13.33;;
17991;SDS011;9121;50.926;5.340;2024-01-25T12:43:27;46.70;;;10.77;;
17991;SDS011;9121;50.926;5.340;2024-01-25T12:45:54;47.43;;;10.30;;
17991;SDS011;9121;50.926;5.340;2024-01-25T12:48:21;47.40;;;11.18;;
17991;SDS011;9121;50.926;5.340;2024-01-25T12:50:48;55.50;;;9.93;;
17991;SDS011;9121;50.926;5.340;2024-01-25T12:53:16;53.37;;;9.40;;
17991;SDS011;9121;50.926;5.340;2024-01-25T12:55:44;49.67;;;9.63;;
17991;SDS011;9121;50.926;5.340;2024-01-25T12:58:11;59.40;;;9.47;;
17991;SDS011;9121;50.926;5.340;2024-01-25T13:00:38;51.13;;;8.77;;
17991;SDS011;9121;50.926;5.340;2024-01-25T13:03:05;55.80;;;9.93;;
17991;SDS011;9121;50.926;5.340;2024-01-25T13:05:32;46.23;;;8.67;;
17991;SDS011;9121;50.926;5.340;2024-01-25T13:08:00;49.67;;;8.10;;
17991;SDS011;9121;50.926;5.340;2024-01-25T13:10:27;45.70;;;8.97;;
17991;SDS011;9121;50.926;5.340;2024-01-25T13:12:56;48.37;;;7.73;;
17991;SDS011;9121;50.926;5.340;2024-01-25T13:15:23;58.67;;;8.70;;
17991;SDS011;9121;50.926;5.340;2024-01-25T13:17:51;44.30;;;7.37;;
17991;SDS011;9121;50.926;5.340;2024-01-25T13:20:18;49.93;;;8.70;;
17991;SDS011;9121;50.926;5.340;2024-01-25T13:22:45;42.23;;;8.20;;
17991;SDS011;9121;50.926;5.340;2024-01-25T13:25:12;45.77;;;7.90;;
17991;SDS011;9121;50.926;5.340;2024-01-25T13:27:40;47.27;;;9.47;;
17991;SDS011;9121;50.926;5.340;2024-01-25T13:30:09;49.20;;;8.50;;
17991;SDS011;9121;50.926;5.340;2024-01-25T13:32:36;50.57;;;9.80;;
17991;SDS011;9121;50.926;5.340;2024-01-25T13:35:04;43.40;;;7.97;;
17991;SDS011;9121;50.926;5.340;2024-01-25T13:37:31;41.40;;;7.50;;
17991;SDS011;9121;50.926;5.340;2024-01-25T13:39:58;40.70;;;8.27;;
17991;SDS011;9121;50.926;5.340;2024-01-25T13:42:25;33.77;;;7.60;;
17991;SDS011;9121;50.926;5.340;2024-01-25T13:44:52;162.73;;;39.27;;
17991;SDS011;9121;50.926;5.340;2024-01-25T13:47:20;37.77;;;6.60;;
17991;SDS011;9121;50.926;5.340;2024-01-25T13:49:47;27.70;;;7.00;;
17991;SDS011;9121;50.926;5.340;2024-01-25T13:52:16;40.33;;;7.43;;
17991;SDS011;9121;50.926;5.340;2024-01-25T13:54:44;28.77;;;6.13;;
17991;SDS011;9121;50.926;5.340;2024-01-25T13:57:12;31.53;;;7.00;;
17991;SDS011;9121;50.926;5.340;2024-01-25T13:59:39;34.27;;;6.80;;
17991;SDS011;9121;50.926;5.340;2024-01-25T14:02:06;29.90;;;6.40;;
17991;SDS011;9121;50.926;5.340;2024-01-25T14:04:35;26.50;;;6.47;;
17991;SDS011;9121;50.926;5.340;2024-01-25T14:07:02;33.10;;;6.67;;
17991;SDS011;9121;50.926;5.340;2024-01-25T14:09:29;29.20;;;6.70;;
17991;SDS011;9121;50.926;5.340;2024-01-25T14:11:56;32.87;;;7.10;;
17991;SDS011;9121;50.926;5.340;2024-01-25T14:14:23;25.77;;;6.27;;
17991;SDS011;9121;50.926;5.340;2024-01-25T14:16:50;25.33;;;6.37;;
17991;SDS011;9121;50.926;5.340;2024-01-25T14:19:17;16.70;;;4.87;;
17991;SDS011;9121;50.926;5.340;2024-01-25T14:21:47;27.23;;;5.50;;
17991;SDS011;9121;50.926;5.340;2024-01-25T14:24:14;30.30;;;5.90;;
17991;SDS011;9121;50.926;5.340;2024-01-25T14:26:41;20.00;;;5.60;;
17991;SDS011;9121;50.926;5.340;2024-01-25T14:29:09;22.90;;;5.27;;
17991;SDS011;9121;50.926;5.340;2024-01-25T14:31:36;24.63;;;5.27;;
17991;SDS011;9121;50.926;5.340;2024-01-25T14:34:03;20.60;;;5.47;;
17991;SDS011;9121;50.926;5.340;2024-01-25T14:36:30;27.40;;;7.07;;
17991;SDS011;9121;50.926;5.340;2024-01-25T14:38:58;22.57;;;6.50;;
17991;SDS011;9121;50.926;5.340;2024-01-25T14:41:27;24.17;;;5.50;;
17991;SDS011;9121;50.926;5.340;2024-01-25T14:43:54;30.37;;;5.43;;
17991;SDS011;9121;50.926;5.340;2024-01-25T14:46:21;28.37;;;5.40;;
17991;SDS011;9121;50.926;5.340;2024-01-25T14:48:48;25.20;;;5.47;;
17991;SDS011;9121;50.926;5.340;2024-01-25T14:51:15;17.80;;;5.60;;